sensor_id;sensor_type;location;lat;lon;timestamp;temperature;humidity
38464;DHT22;24243;51.956;5.902;2022-08-25T00:00:56;28.30;51.70
38464;DHT22;24243;51.956;5.902;2022-08-25T00:03:22;28.40;51.70
38464;DHT22;24243;51.956;5.902;2022-08-25T00:05:48;28.40;51.80
38464;DHT22;24243;51.956;5.902;2022-08-25T00:08:13;28.30;51.70
38464;DHT22;24243;51.956;5.902;2022-08-25T00:10:39;28.40;51.70
38464;DHT22;24243;51.956;5.902;2022-08-25T00:13:05;28.30;51.70
38464;DHT22;24243;51.956;5.902;2022-08-25T00:15:31;28.30;51.70
38464;DHT22;24243;51.956;5.902;2022-08-25T00:17:57;28.40;51.70
38464;DHT22;24243;51.956;5.902;2022-08-25T00:20:23;28.30;51.60
38464;DHT22;24243;51.956;5.902;2022-08-25T00:22:49;28.30;51.60
38464;DHT22;24243;51.956;5.902;2022-08-25T00:25:15;28.30;51.60
38464;DHT22;24243;51.956;5.902;2022-08-25T00:27:41;28.30;51.60
38464;DHT22;24243;51.956;5.902;2022-08-25T00:30:08;28.30;51.60
38464;DHT22;24243;51.956;5.902;2022-08-25T00:32:34;28.30;51.60
38464;DHT22;24243;51.956;5.902;2022-08-25T00:35:00;28.30;51.60
38464;DHT22;24243;51.956;5.902;2022-08-25T00:37:26;28.30;51.60
38464;DHT22;24243;51.956;5.902;2022-08-25T00:39:52;28.30;51.60
38464;DHT22;24243;51.956;5.902;2022-08-25T00:42:19;28.30;51.60
38464;DHT22;24243;51.956;5.902;2022-08-25T00:44:45;28.30;51.60
38464;DHT22;24243;51.956;5.902;2022-08-25T00:47:11;28.30;51.60
38464;DHT22;24243;51.956;5.902;2022-08-25T00:52:21;28.30;51.60
38464;DHT22;24243;51.956;5.902;2022-08-25T00:57:14;28.30;51.60
38464;DHT22;24243;51.956;5.902;2022-08-25T00:59:41;28.30;51.60
38464;DHT22;24243;51.956;5.902;2022-08-25T01:02:07;28.30;51.60
38464;DHT22;24243;51.956;5.902;2022-08-25T01:04:33;28.30;51.60
38464;DHT22;24243;51.956;5.902;2022-08-25T01:06:59;28.30;51.60
38464;DHT22;24243;51.956;5.902;2022-08-25T01:09:25;28.30;51.50
38464;DHT22;24243;51.956;5.902;2022-08-25T01:11:50;28.30;51.50
38464;DHT22;24243;51.956;5.902;2022-08-25T01:14:18;28.30;51.50
38464;DHT22;24243;51.956;5.902;2022-08-25T01:16:44;28.30;51.50
38464;DHT22;24243;51.956;5.902;2022-08-25T01:19:11;28.30;51.50
38464;DHT22;24243;51.956;5.902;2022-08-25T01:21:45;28.30;51.50
38464;DHT22;24243;51.956;5.902;2022-08-25T01:24:13;28.20;51.50
38464;DHT22;24243;51.956;5.902;2022-08-25T01:26:40;28.20;51.50
38464;DHT22;24243;51.956;5.902;2022-08-25T01:29:06;28.20;51.40
38464;DHT22;24243;51.956;5.902;2022-08-25T01:31:52;28.20;51.40
38464;DHT22;24243;51.956;5.902;2022-08-25T01:34:20;28.20;51.40
38464;DHT22;24243;51.956;5.902;2022-08-25T01:36:46;28.20;51.50
38464;DHT22;24243;51.956;5.902;2022-08-25T01:39:12;28.20;51.40
38464;DHT22;24243;51.956;5.902;2022-08-25T01:41:48;28.20;51.40
38464;DHT22;24243;51.956;5.902;2022-08-25T01:44:15;28.20;51.40
38464;DHT22;24243;51.956;5.902;2022-08-25T01:46:41;28.20;51.40
38464;DHT22;24243;51.956;5.902;2022-08-25T01:49:06;28.20;51.40
38464;DHT22;24243;51.956;5.902;2022-08-25T01:51:34;28.20;51.40
38464;DHT22;24243;51.956;5.902;2022-08-25T01:54:02;28.20;51.40
38464;DHT22;24243;51.956;5.902;2022-08-25T01:56:27;28.20;51.40
38464;DHT22;24243;51.956;5.902;2022-08-25T01:58:53;28.20;51.40
38464;DHT22;24243;51.956;5.902;2022-08-25T02:01:19;28.10;51.30
38464;DHT22;24243;51.956;5.902;2022-08-25T02:03:46;28.10;51.30
38464;DHT22;24243;51.956;5.902;2022-08-25T02:06:13;28.10;51.30
38464;DHT22;24243;51.956;5.902;2022-08-25T02:08:39;28.20;51.40
38464;DHT22;24243;51.956;5.902;2022-08-25T02:11:06;28.10;51.30
38464;DHT22;24243;51.956;5.902;2022-08-25T02:13:36;28.10;51.30
38464;DHT22;24243;51.956;5.902;2022-08-25T02:16:01;28.20;51.30
38464;DHT22;24243;51.956;5.902;2022-08-25T02:18:27;28.10;51.30
38464;DHT22;24243;51.956;5.902;2022-08-25T02:20:53;28.10;51.20
38464;DHT22;24243;51.956;5.902;2022-08-25T02:23:18;28.10;51.20
38464;DHT22;24243;51.956;5.902;2022-08-25T02:25:44;28.10;51.20
38464;DHT22;24243;51.956;5.902;2022-08-25T02:28:09;28.10;51.20
38464;DHT22;24243;51.956;5.902;2022-08-25T02:30:36;28.10;51.20
38464;DHT22;24243;51.956;5.902;2022-08-25T02:33:02;28.10;51.20
38464;DHT22;24243;51.956;5.902;2022-08-25T02:35:28;28.10;51.20
38464;DHT22;24243;51.956;5.902;2022-08-25T02:37:54;28.10;51.20
38464;DHT22;24243;51.956;5.902;2022-08-25T02:40:19;28.10;51.20
38464;DHT22;24243;51.956;5.902;2022-08-25T02:42:46;28.10;51.20
38464;DHT22;24243;51.956;5.902;2022-08-25T02:45:12;28.10;51.20
38464;DHT22;24243;51.956;5.902;2022-08-25T02:47:38;28.10;51.20
38464;DHT22;24243;51.956;5.902;2022-08-25T02:50:04;28.10;51.20
38464;DHT22;24243;51.956;5.902;2022-08-25T02:52:30;28.10;51.10
38464;DHT22;24243;51.956;5.902;2022-08-25T02:54:55;28.10;51.10
38464;DHT22;24243;51.956;5.902;2022-08-25T02:57:21;28.10;51.10
38464;DHT22;24243;51.956;5.902;2022-08-25T02:59:46;28.10;51.10
38464;DHT22;24243;51.956;5.902;2022-08-25T03:02:13;28.10;51.10
38464;DHT22;24243;51.956;5.902;2022-08-25T03:04:39;28.10;51.10
38464;DHT22;24243;51.956;5.902;2022-08-25T03:07:04;28.10;51.00
38464;DHT22;24243;51.956;5.902;2022-08-25T03:09:30;28.10;51.00
38464;DHT22;24243;51.956;5.902;2022-08-25T03:11:56;28.10;51.10
38464;DHT22;24243;51.956;5.902;2022-08-25T03:14:22;28.10;51.00
38464;DHT22;24243;51.956;5.902;2022-08-25T03:16:48;28.00;51.00
38464;DHT22;24243;51.956;5.902;2022-08-25T03:19:13;28.00;50.90
38464;DHT22;24243;51.956;5.902;2022-08-25T03:21:39;28.00;50.90
38464;DHT22;24243;51.956;5.902;2022-08-25T03:24:05;28.10;51.00
38464;DHT22;24243;51.956;5.902;2022-08-25T03:26:30;28.00;50.90
38464;DHT22;24243;51.956;5.902;2022-08-25T03:29:15;28.00;50.90
38464;DHT22;24243;51.956;5.902;2022-08-25T03:31:41;28.00;50.90
38464;DHT22;24243;51.956;5.902;2022-08-25T03:34:09;28.00;50.90
38464;DHT22;24243;51.956;5.902;2022-08-25T03:36:35;28.00;50.90
38464;DHT22;24243;51.956;5.902;2022-08-25T03:39:00;28.00;50.90
38464;DHT22;24243;51.956;5.902;2022-08-25T03:41:27;28.00;50.80
38464;DHT22;24243;51.956;5.902;2022-08-25T03:43:53;28.00;50.80
38464;DHT22;24243;51.956;5.902;2022-08-25T03:46:21;28.00;50.80
38464;DHT22;24243;51.956;5.902;2022-08-25T03:48:47;28.00;50.80
38464;DHT22;24243;51.956;5.902;2022-08-25T03:51:18;28.00;50.80
38464;DHT22;24243;51.956;5.902;2022-08-25T03:53:43;27.90;50.80
38464;DHT22;24243;51.956;5.902;2022-08-25T03:56:09;28.00;50.80
38464;DHT22;24243;51.956;5.902;2022-08-25T03:58:35;28.00;50.80
38464;DHT22;24243;51.956;5.902;2022-08-25T04:01:01;28.00;50.80
38464;DHT22;24243;51.956;5.902;2022-08-25T04:03:27;28.00;50.80
38464;DHT22;24243;51.956;5.902;2022-08-25T04:05:52;27.90;50.70
38464;DHT22;24243;51.956;5.902;2022-08-25T04:08:18;27.90;50.70
38464;DHT22;24243;51.956;5.902;2022-08-25T04:10:43;27.90;50.70
38464;DHT22;24243;51.956;5.902;2022-08-25T04:13:09;27.90;51.30
38464;DHT22;24243;51.956;5.902;2022-08-25T04:15:39;27.90;50.70
38464;DHT22;24243;51.956;5.902;2022-08-25T04:18:06;27.90;50.60
38464;DHT22;24243;51.956;5.902;2022-08-25T04:20:31;27.90;50.60
38464;DHT22;24243;51.956;5.902;2022-08-25T04:22:57;27.90;50.60
38464;DHT22;24243;51.956;5.902;2022-08-25T04:25:25;27.90;50.60
38464;DHT22;24243;51.956;5.902;2022-08-25T04:27:52;27.90;50.60
38464;DHT22;24243;51.956;5.902;2022-08-25T04:30:17;27.90;50.60
38464;DHT22;24243;51.956;5.902;2022-08-25T04:32:43;27.90;50.50
38464;DHT22;24243;51.956;5.902;2022-08-25T04:35:08;27.90;50.50
38464;DHT22;24243;51.956;5.902;2022-08-25T04:37:34;27.90;50.40
38464;DHT22;24243;51.956;5.902;2022-08-25T04:40:00;27.90;50.40
38464;DHT22;24243;51.956;5.902;2022-08-25T04:42:26;27.90;50.40
38464;DHT22;24243;51.956;5.902;2022-08-25T04:44:51;27.90;50.30
38464;DHT22;24243;51.956;5.902;2022-08-25T04:47:18;27.90;50.30
38464;DHT22;24243;51.956;5.902;2022-08-25T04:49:44;27.90;50.30
38464;DHT22;24243;51.956;5.902;2022-08-25T04:52:09;27.90;50.30
38464;DHT22;24243;51.956;5.902;2022-08-25T04:54:35;27.90;50.20
38464;DHT22;24243;51.956;5.902;2022-08-25T04:57:01;27.90;50.20
38464;DHT22;24243;51.956;5.902;2022-08-25T04:59:26;27.90;50.10
38464;DHT22;24243;51.956;5.902;2022-08-25T05:01:52;27.90;50.20
38464;DHT22;24243;51.956;5.902;2022-08-25T05:04:19;27.90;50.10
38464;DHT22;24243;51.956;5.902;2022-08-25T05:06:45;27.90;50.20
38464;DHT22;24243;51.956;5.902;2022-08-25T05:09:11;27.90;50.10
38464;DHT22;24243;51.956;5.902;2022-08-25T05:11:36;27.90;50.10
38464;DHT22;24243;51.956;5.902;2022-08-25T05:14:02;27.90;50.10
38464;DHT22;24243;51.956;5.902;2022-08-25T05:16:28;27.90;50.10
38464;DHT22;24243;51.956;5.902;2022-08-25T05:18:54;27.80;50.10
38464;DHT22;24243;51.956;5.902;2022-08-25T05:21:21;27.80;50.10
38464;DHT22;24243;51.956;5.902;2022-08-25T05:23:47;27.80;50.70
38464;DHT22;24243;51.956;5.902;2022-08-25T05:26:17;27.80;49.70
38464;DHT22;24243;51.956;5.902;2022-08-25T05:28:43;27.70;49.60
38464;DHT22;24243;51.956;5.902;2022-08-25T05:31:10;27.60;49.30
38464;DHT22;24243;51.956;5.902;2022-08-25T05:33:36;27.50;49.20
38464;DHT22;24243;51.956;5.902;2022-08-25T05:36:02;27.50;49.10
38464;DHT22;24243;51.956;5.902;2022-08-25T05:38:28;27.40;49.00
38464;DHT22;24243;51.956;5.902;2022-08-25T05:41:13;27.30;48.90
38464;DHT22;24243;51.956;5.902;2022-08-25T05:43:43;27.30;48.80
38464;DHT22;24243;51.956;5.902;2022-08-25T05:46:10;27.20;48.70
38464;DHT22;24243;51.956;5.902;2022-08-25T05:48:36;27.20;48.70
38464;DHT22;24243;51.956;5.902;2022-08-25T05:51:03;27.10;48.60
38464;DHT22;24243;51.956;5.902;2022-08-25T05:53:29;27.20;48.60
38464;DHT22;24243;51.956;5.902;2022-08-25T05:55:55;27.20;48.60
38464;DHT22;24243;51.956;5.902;2022-08-25T05:58:22;27.20;48.40
38464;DHT22;24243;51.956;5.902;2022-08-25T06:00:48;27.20;48.30
38464;DHT22;24243;51.956;5.902;2022-08-25T06:03:13;27.30;48.10
38464;DHT22;24243;51.956;5.902;2022-08-25T06:05:39;27.50;48.00
38464;DHT22;24243;51.956;5.902;2022-08-25T06:08:05;27.60;47.80
38464;DHT22;24243;51.956;5.902;2022-08-25T06:10:31;27.70;47.50
38464;DHT22;24243;51.956;5.902;2022-08-25T06:12:57;27.90;47.30
38464;DHT22;24243;51.956;5.902;2022-08-25T06:15:23;28.00;47.10
38464;DHT22;24243;51.956;5.902;2022-08-25T06:17:49;28.20;46.90
38464;DHT22;24243;51.956;5.902;2022-08-25T06:20:15;28.40;46.70
38464;DHT22;24243;51.956;5.902;2022-08-25T06:22:41;28.50;46.30
38464;DHT22;24243;51.956;5.902;2022-08-25T06:25:07;28.70;46.20
38464;DHT22;24243;51.956;5.902;2022-08-25T06:27:34;28.80;46.10
38464;DHT22;24243;51.956;5.902;2022-08-25T06:30:00;29.00;46.00
38464;DHT22;24243;51.956;5.902;2022-08-25T06:32:29;29.20;45.80
38464;DHT22;24243;51.956;5.902;2022-08-25T06:34:55;29.50;45.60
38464;DHT22;24243;51.956;5.902;2022-08-25T06:37:23;29.80;45.30
38464;DHT22;24243;51.956;5.902;2022-08-25T06:39:48;30.30;44.90
38464;DHT22;24243;51.956;5.902;2022-08-25T06:42:14;30.70;44.50
38464;DHT22;24243;51.956;5.902;2022-08-25T06:44:40;31.00;44.00
38464;DHT22;24243;51.956;5.902;2022-08-25T06:47:05;31.40;43.70
38464;DHT22;24243;51.956;5.902;2022-08-25T06:49:31;31.50;43.20
38464;DHT22;24243;51.956;5.902;2022-08-25T06:51:57;31.30;43.20
38464;DHT22;24243;51.956;5.902;2022-08-25T06:54:23;30.90;43.50
38464;DHT22;24243;51.956;5.902;2022-08-25T06:56:48;30.60;43.80
38464;DHT22;24243;51.956;5.902;2022-08-25T06:59:14;30.30;44.20
38464;DHT22;24243;51.956;5.902;2022-08-25T07:01:41;30.00;44.50
38464;DHT22;24243;51.956;5.902;2022-08-25T07:04:07;29.70;44.70
38464;DHT22;24243;51.956;5.902;2022-08-25T07:06:33;29.40;44.90
38464;DHT22;24243;51.956;5.902;2022-08-25T07:09:00;29.30;45.10
38464;DHT22;24243;51.956;5.902;2022-08-25T07:11:26;29.10;45.20
38464;DHT22;24243;51.956;5.902;2022-08-25T07:13:52;29.00;45.30
38464;DHT22;24243;51.956;5.902;2022-08-25T07:16:18;28.90;45.40
38464;DHT22;24243;51.956;5.902;2022-08-25T07:18:44;28.80;45.50
38464;DHT22;24243;51.956;5.902;2022-08-25T07:21:11;28.70;45.50
38464;DHT22;24243;51.956;5.902;2022-08-25T07:23:37;28.60;45.50
38464;DHT22;24243;51.956;5.902;2022-08-25T07:26:06;28.60;45.60
38464;DHT22;24243;51.956;5.902;2022-08-25T07:28:32;28.50;45.70
38464;DHT22;24243;51.956;5.902;2022-08-25T07:30:58;28.50;45.70
38464;DHT22;24243;51.956;5.902;2022-08-25T07:33:25;28.40;45.60
38464;DHT22;24243;51.956;5.902;2022-08-25T07:35:51;28.40;45.70
38464;DHT22;24243;51.956;5.902;2022-08-25T07:38:17;28.40;45.70
38464;DHT22;24243;51.956;5.902;2022-08-25T07:40:42;28.40;45.70
38464;DHT22;24243;51.956;5.902;2022-08-25T07:43:08;28.40;45.70
38464;DHT22;24243;51.956;5.902;2022-08-25T07:45:35;28.40;45.70
38464;DHT22;24243;51.956;5.902;2022-08-25T07:48:08;28.40;45.70
38464;DHT22;24243;51.956;5.902;2022-08-25T07:50:35;28.40;45.80
38464;DHT22;24243;51.956;5.902;2022-08-25T07:53:03;28.40;45.80
38464;DHT22;24243;51.956;5.902;2022-08-25T07:55:28;28.40;45.80
38464;DHT22;24243;51.956;5.902;2022-08-25T07:57:54;28.40;45.80
38464;DHT22;24243;51.956;5.902;2022-08-25T08:00:20;28.40;45.80
38464;DHT22;24243;51.956;5.902;2022-08-25T08:02:46;28.40;45.80
38464;DHT22;24243;51.956;5.902;2022-08-25T08:05:12;28.40;45.90
38464;DHT22;24243;51.956;5.902;2022-08-25T08:07:38;28.40;45.90
38464;DHT22;24243;51.956;5.902;2022-08-25T08:10:04;28.40;46.00
38464;DHT22;24243;51.956;5.902;2022-08-25T08:12:30;28.50;46.00
38464;DHT22;24243;51.956;5.902;2022-08-25T08:14:57;28.50;46.10
38464;DHT22;24243;51.956;5.902;2022-08-25T08:17:23;28.50;46.10
38464;DHT22;24243;51.956;5.902;2022-08-25T08:19:48;28.50;46.10
38464;DHT22;24243;51.956;5.902;2022-08-25T08:22:14;28.50;46.00
38464;DHT22;24243;51.956;5.902;2022-08-25T08:24:40;28.50;46.00
38464;DHT22;24243;51.956;5.902;2022-08-25T08:27:09;28.50;46.00
38464;DHT22;24243;51.956;5.902;2022-08-25T08:29:35;28.50;46.00
38464;DHT22;24243;51.956;5.902;2022-08-25T08:32:01;28.50;46.00
38464;DHT22;24243;51.956;5.902;2022-08-25T08:34:27;28.50;46.00
38464;DHT22;24243;51.956;5.902;2022-08-25T08:36:53;28.60;46.10
38464;DHT22;24243;51.956;5.902;2022-08-25T08:39:19;28.60;46.00
38464;DHT22;24243;51.956;5.902;2022-08-25T08:41:48;28.60;46.00
38464;DHT22;24243;51.956;5.902;2022-08-25T08:47:04;28.60;45.90
38464;DHT22;24243;51.956;5.902;2022-08-25T08:51:58;28.60;45.80
38464;DHT22;24243;51.956;5.902;2022-08-25T08:54:25;28.60;45.80
38464;DHT22;24243;51.956;5.902;2022-08-25T08:57:02;28.60;45.80
38464;DHT22;24243;51.956;5.902;2022-08-25T08:59:30;28.70;45.80
38464;DHT22;24243;51.956;5.902;2022-08-25T09:01:59;28.70;45.70
38464;DHT22;24243;51.956;5.902;2022-08-25T09:04:40;28.70;45.70
38464;DHT22;24243;51.956;5.902;2022-08-25T09:07:12;28.70;45.70
38464;DHT22;24243;51.956;5.902;2022-08-25T09:09:39;28.70;45.70
38464;DHT22;24243;51.956;5.902;2022-08-25T09:14:51;28.80;45.70
38464;DHT22;24243;51.956;5.902;2022-08-25T09:20:06;28.80;45.60
38464;DHT22;24243;51.956;5.902;2022-08-25T09:32:39;28.90;45.60
38464;DHT22;24243;51.956;5.902;2022-08-25T09:35:05;28.90;45.60
38464;DHT22;24243;51.956;5.902;2022-08-25T09:37:32;28.90;45.60
38464;DHT22;24243;51.956;5.902;2022-08-25T09:39:57;28.90;45.60
38464;DHT22;24243;51.956;5.902;2022-08-25T09:42:44;28.90;45.60
38464;DHT22;24243;51.956;5.902;2022-08-25T09:45:10;28.90;45.60
38464;DHT22;24243;51.956;5.902;2022-08-25T09:47:41;28.90;45.60
38464;DHT22;24243;51.956;5.902;2022-08-25T09:50:07;29.00;45.70
38464;DHT22;24243;51.956;5.902;2022-08-25T09:52:39;29.00;45.70
38464;DHT22;24243;51.956;5.902;2022-08-25T09:57:33;29.00;45.60
38464;DHT22;24243;51.956;5.902;2022-08-25T10:02:37;29.00;45.60
38464;DHT22;24243;51.956;5.902;2022-08-25T10:05:23;29.10;45.60
38464;DHT22;24243;51.956;5.902;2022-08-25T10:07:59;29.10;45.60
38464;DHT22;24243;51.956;5.902;2022-08-25T10:10:33;29.10;45.60
38464;DHT22;24243;51.956;5.902;2022-08-25T10:12:59;29.10;45.50
38464;DHT22;24243;51.956;5.902;2022-08-25T10:15:33;29.10;45.50
38464;DHT22;24243;51.956;5.902;2022-08-25T10:18:19;29.10;45.40
38464;DHT22;24243;51.956;5.902;2022-08-25T10:23:30;29.10;45.30
38464;DHT22;24243;51.956;5.902;2022-08-25T10:25:58;29.20;45.30
38464;DHT22;24243;51.956;5.902;2022-08-25T10:30:58;29.20;45.10
38464;DHT22;24243;51.956;5.902;2022-08-25T10:36:13;29.10;44.90
38464;DHT22;24243;51.956;5.902;2022-08-25T10:38:55;29.00;44.80
38464;DHT22;24243;51.956;5.902;2022-08-25T10:46:58;29.00;44.70
38464;DHT22;24243;51.956;5.902;2022-08-25T10:49:35;29.00;44.60
38464;DHT22;24243;51.956;5.902;2022-08-25T10:52:04;29.00;44.60
38464;DHT22;24243;51.956;5.902;2022-08-25T10:54:43;29.00;44.50
38464;DHT22;24243;51.956;5.902;2022-08-25T10:57:46;29.00;44.50
38464;DHT22;24243;51.956;5.902;2022-08-25T11:00:04;29.00;44.30
38464;DHT22;24243;51.956;5.902;2022-08-25T11:07:53;29.10;44.00
38464;DHT22;24243;51.956;5.902;2022-08-25T11:10:33;29.10;43.90
38464;DHT22;24243;51.956;5.902;2022-08-25T11:13:02;29.10;43.90
38464;DHT22;24243;51.956;5.902;2022-08-25T11:15:39;29.10;43.80
38464;DHT22;24243;51.956;5.902;2022-08-25T11:18:08;29.10;43.70
38464;DHT22;24243;51.956;5.902;2022-08-25T11:20:45;29.10;43.60
38464;DHT22;24243;51.956;5.902;2022-08-25T11:23:16;29.20;43.50
38464;DHT22;24243;51.956;5.902;2022-08-25T11:25:45;29.10;43.40
38464;DHT22;24243;51.956;5.902;2022-08-25T11:28:32;29.20;43.30
38464;DHT22;24243;51.956;5.902;2022-08-25T11:31:00;29.20;43.30
38464;DHT22;24243;51.956;5.902;2022-08-25T11:33:27;29.10;43.20
38464;DHT22;24243;51.956;5.902;2022-08-25T11:35:55;29.20;43.30
38464;DHT22;24243;51.956;5.902;2022-08-25T11:48:36;29.40;43.10
38464;DHT22;24243;51.956;5.902;2022-08-25T11:51:04;29.50;43.10
38464;DHT22;24243;51.956;5.902;2022-08-25T11:53:41;29.50;43.10
38464;DHT22;24243;51.956;5.902;2022-08-25T11:56:07;29.50;43.00
38464;DHT22;24243;51.956;5.902;2022-08-25T12:01:04;29.50;42.90
38464;DHT22;24243;51.956;5.902;2022-08-25T12:08:50;29.60;42.80
38464;DHT22;24243;51.956;5.902;2022-08-25T12:16:40;29.60;42.60
38464;DHT22;24243;51.956;5.902;2022-08-25T12:19:22;29.60;42.50
38464;DHT22;24243;51.956;5.902;2022-08-25T12:21:48;29.70;42.60
38464;DHT22;24243;51.956;5.902;2022-08-25T12:24:15;29.70;42.50
38464;DHT22;24243;51.956;5.902;2022-08-25T12:26:58;29.70;42.40
38464;DHT22;24243;51.956;5.902;2022-08-25T12:39:34;29.70;42.00
38464;DHT22;24243;51.956;5.902;2022-08-25T12:42:04;29.60;41.80
38464;DHT22;24243;51.956;5.902;2022-08-25T12:47:12;29.60;41.80
38464;DHT22;24243;51.956;5.902;2022-08-25T12:49:38;29.50;41.60
38464;DHT22;24243;51.956;5.902;2022-08-25T12:57:03;29.50;41.40
38464;DHT22;24243;51.956;5.902;2022-08-25T12:59:35;29.50;41.50
38464;DHT22;24243;51.956;5.902;2022-08-25T13:09:48;29.50;41.50
38464;DHT22;24243;51.956;5.902;2022-08-25T13:12:24;29.40;41.50
38464;DHT22;24243;51.956;5.902;2022-08-25T13:14:52;29.40;41.50
38464;DHT22;24243;51.956;5.902;2022-08-25T13:17:29;29.40;41.40
38464;DHT22;24243;51.956;5.902;2022-08-25T13:20:11;29.40;41.40
38464;DHT22;24243;51.956;5.902;2022-08-25T13:22:37;29.50;41.30
38464;DHT22;24243;51.956;5.902;2022-08-25T13:25:02;29.50;41.30
38464;DHT22;24243;51.956;5.902;2022-08-25T13:27:34;29.50;41.20
38464;DHT22;24243;51.956;5.902;2022-08-25T13:30:01;29.50;41.20
38464;DHT22;24243;51.956;5.902;2022-08-25T13:32:28;29.50;41.20
38464;DHT22;24243;51.956;5.902;2022-08-25T13:35:06;29.50;41.10
38464;DHT22;24243;51.956;5.902;2022-08-25T13:37:32;29.50;41.00
38464;DHT22;24243;51.956;5.902;2022-08-25T13:42:32;29.50;41.00
38464;DHT22;24243;51.956;5.902;2022-08-25T13:44:58;29.50;41.00
38464;DHT22;24243;51.956;5.902;2022-08-25T13:47:37;29.50;40.90
38464;DHT22;24243;51.956;5.902;2022-08-25T13:52:50;29.50;40.80
38464;DHT22;24243;51.956;5.902;2022-08-25T13:58:00;29.50;40.70
38464;DHT22;24243;51.956;5.902;2022-08-25T14:00:28;29.60;40.70
38464;DHT22;24243;51.956;5.902;2022-08-25T14:02:54;29.60;40.60
38464;DHT22;24243;51.956;5.902;2022-08-25T14:05:37;29.60;40.60
38464;DHT22;24243;51.956;5.902;2022-08-25T14:08:03;29.60;40.60
38464;DHT22;24243;51.956;5.902;2022-08-25T14:10:40;29.60;40.60
38464;DHT22;24243;51.956;5.902;2022-08-25T14:13:14;29.60;40.50
38464;DHT22;24243;51.956;5.902;2022-08-25T14:15:40;29.60;40.50
38464;DHT22;24243;51.956;5.902;2022-08-25T14:18:28;29.60;40.30
38464;DHT22;24243;51.956;5.902;2022-08-25T14:20:53;29.60;40.30
38464;DHT22;24243;51.956;5.902;2022-08-25T14:23:23;29.60;40.30
38464;DHT22;24243;51.956;5.902;2022-08-25T14:25:51;29.60;40.30
38464;DHT22;24243;51.956;5.902;2022-08-25T14:28:18;29.60;40.20
38464;DHT22;24243;51.956;5.902;2022-08-25T14:33:16;29.60;40.20
38464;DHT22;24243;51.956;5.902;2022-08-25T14:35:45;29.60;40.10
38464;DHT22;24243;51.956;5.902;2022-08-25T14:38:11;29.60;40.10
38464;DHT22;24243;51.956;5.902;2022-08-25T14:40:37;29.60;40.10
38464;DHT22;24243;51.956;5.902;2022-08-25T14:43:04;29.60;40.00
38464;DHT22;24243;51.956;5.902;2022-08-25T14:45:29;29.60;40.00
38464;DHT22;24243;51.956;5.902;2022-08-25T14:47:55;29.60;39.90
38464;DHT22;24243;51.956;5.902;2022-08-25T14:50:21;29.70;39.90
38464;DHT22;24243;51.956;5.902;2022-08-25T14:52:47;29.60;39.80
38464;DHT22;24243;51.956;5.902;2022-08-25T14:55:13;29.60;39.90
38464;DHT22;24243;51.956;5.902;2022-08-25T14:57:38;29.60;39.90
38464;DHT22;24243;51.956;5.902;2022-08-25T15:00:04;29.70;40.00
38464;DHT22;24243;51.956;5.902;2022-08-25T15:02:32;29.70;39.90
38464;DHT22;24243;51.956;5.902;2022-08-25T15:05:00;29.80;40.00
38464;DHT22;24243;51.956;5.902;2022-08-25T15:07:27;29.80;39.90
38464;DHT22;24243;51.956;5.902;2022-08-25T15:10:11;29.80;39.80
38464;DHT22;24243;51.956;5.902;2022-08-25T15:12:36;29.80;39.70
38464;DHT22;24243;51.956;5.902;2022-08-25T15:15:02;29.80;39.60
38464;DHT22;24243;51.956;5.902;2022-08-25T15:17:28;29.70;39.70
38464;DHT22;24243;51.956;5.902;2022-08-25T15:19:54;29.70;39.70
38464;DHT22;24243;51.956;5.902;2022-08-25T15:22:20;29.80;39.70
38464;DHT22;24243;51.956;5.902;2022-08-25T15:24:45;29.80;39.60
38464;DHT22;24243;51.956;5.902;2022-08-25T15:27:11;29.80;39.60
38464;DHT22;24243;51.956;5.902;2022-08-25T15:29:39;29.80;39.50
38464;DHT22;24243;51.956;5.902;2022-08-25T15:32:05;29.80;39.50
38464;DHT22;24243;51.956;5.902;2022-08-25T15:34:31;29.80;39.40
38464;DHT22;24243;51.956;5.902;2022-08-25T15:36:57;29.80;39.40
38464;DHT22;24243;51.956;5.902;2022-08-25T15:39:24;29.80;39.40
38464;DHT22;24243;51.956;5.902;2022-08-25T15:41:49;29.80;39.30
38464;DHT22;24243;51.956;5.902;2022-08-25T15:44:18;29.70;39.20
38464;DHT22;24243;51.956;5.902;2022-08-25T15:46:44;29.70;39.20
38464;DHT22;24243;51.956;5.902;2022-08-25T15:49:11;29.70;39.20
38464;DHT22;24243;51.956;5.902;2022-08-25T15:51:36;29.70;39.20
38464;DHT22;24243;51.956;5.902;2022-08-25T15:54:02;29.70;39.10
38464;DHT22;24243;51.956;5.902;2022-08-25T15:56:28;29.60;39.00
38464;DHT22;24243;51.956;5.902;2022-08-25T15:58:54;29.70;39.10
38464;DHT22;24243;51.956;5.902;2022-08-25T16:01:20;29.70;39.10
38464;DHT22;24243;51.956;5.902;2022-08-25T16:03:46;29.60;39.10
38464;DHT22;24243;51.956;5.902;2022-08-25T16:06:12;29.60;39.70
38464;DHT22;24243;51.956;5.902;2022-08-25T16:08:38;29.60;39.00
38464;DHT22;24243;51.956;5.902;2022-08-25T16:11:04;29.60;39.00
38464;DHT22;24243;51.956;5.902;2022-08-25T16:13:30;29.60;39.00
38464;DHT22;24243;51.956;5.902;2022-08-25T16:15:56;29.60;39.00
38464;DHT22;24243;51.956;5.902;2022-08-25T16:18:22;29.60;39.00
38464;DHT22;24243;51.956;5.902;2022-08-25T16:20:48;29.60;38.90
38464;DHT22;24243;51.956;5.902;2022-08-25T16:23:15;29.60;38.90
38464;DHT22;24243;51.956;5.902;2022-08-25T16:25:41;29.60;38.90
38464;DHT22;24243;51.956;5.902;2022-08-25T16:28:07;29.60;38.80
38464;DHT22;24243;51.956;5.902;2022-08-25T16:30:33;29.60;38.80
38464;DHT22;24243;51.956;5.902;2022-08-25T16:32:58;29.60;38.80
38464;DHT22;24243;51.956;5.902;2022-08-25T16:35:25;29.60;38.70
38464;DHT22;24243;51.956;5.902;2022-08-25T16:37:51;29.60;38.70
38464;DHT22;24243;51.956;5.902;2022-08-25T16:40:17;29.60;38.70
38464;DHT22;24243;51.956;5.902;2022-08-25T16:42:46;29.60;38.70
38464;DHT22;24243;51.956;5.902;2022-08-25T16:45:12;29.60;38.70
38464;DHT22;24243;51.956;5.902;2022-08-25T16:47:38;29.60;38.60
38464;DHT22;24243;51.956;5.902;2022-08-25T16:50:05;29.60;38.60
38464;DHT22;24243;51.956;5.902;2022-08-25T16:52:31;29.60;38.60
38464;DHT22;24243;51.956;5.902;2022-08-25T16:55:15;29.60;38.50
38464;DHT22;24243;51.956;5.902;2022-08-25T16:57:42;29.60;38.50
38464;DHT22;24243;51.956;5.902;2022-08-25T17:00:09;29.60;38.40
38464;DHT22;24243;51.956;5.902;2022-08-25T17:02:37;29.60;38.40
38464;DHT22;24243;51.956;5.902;2022-08-25T17:05:03;29.60;38.40
38464;DHT22;24243;51.956;5.902;2022-08-25T17:07:28;29.60;38.40
38464;DHT22;24243;51.956;5.902;2022-08-25T17:09:54;29.60;38.40
38464;DHT22;24243;51.956;5.902;2022-08-25T17:12:22;29.60;38.40
38464;DHT22;24243;51.956;5.902;2022-08-25T17:14:48;29.50;38.40
38464;DHT22;24243;51.956;5.902;2022-08-25T17:17:13;29.50;38.40
38464;DHT22;24243;51.956;5.902;2022-08-25T17:19:39;29.50;38.50
38464;DHT22;24243;51.956;5.902;2022-08-25T17:22:05;29.50;38.50